Nipigon, Canada
Current Conditions -  °F | °C
As of 12:00 AM on Saturday 25 Oct 2014 (Local Time) from CYQT Reporting Station
Clear Clear  
Wind Chill: 41°   Ceiling: Unl
Heat Index: 41°   Visibility: 15mi
Dew Point: 41°   Wind: 2mph
Humidity: 100%   Direction: 270°W
Pressure: 29.57"   Gusts: NA
Location:  49.01°N, 88.26°W
Report Text: CYQT 250400Z 27002KT 15SM SKC 05/05 A2957 RMK SLP019
Loading
Personal Weather Stations






























Interactive Weather Map
Tropical Storm Tracking
New forecast layout! Learn more

10-Day Weather Forecast

Advertisements
Track Severe Weather on mobile